sensor_id;sensor_type;location;lat;lon;timestamp;pressure;altitude;pressure_sealevel;temperature;humidity
73085;BME280;61266;49.460;10.892;2022-07-29T00:00:39;97617.81;;;21.96;43.23
73085;BME280;61266;49.460;10.892;2022-07-29T00:03:07;97616.72;;;21.87;43.13
73085;BME280;61266;49.460;10.892;2022-07-29T00:05:35;97614.00;;;21.92;43.56
73085;BME280;61266;49.460;10.892;2022-07-29T00:08:03;97616.19;;;21.85;43.72
73085;BME280;61266;49.460;10.892;2022-07-29T00:10:37;97609.06;;;21.89;43.57
73085;BME280;61266;49.460;10.892;2022-07-29T00:13:05;97609.09;;;21.84;43.70
73085;BME280;61266;49.460;10.892;2022-07-29T00:15:33;97603.06;;;21.82;43.54
73085;BME280;61266;49.460;10.892;2022-07-29T00:18:02;97591.41;;;21.41;46.44
73085;BME280;61266;49.460;10.892;2022-07-29T00:20:30;97596.31;;;21.39;46.46
73085;BME280;61266;49.460;10.892;2022-07-29T00:23:01;97590.25;;;21.67;44.24
73085;BME280;61266;49.460;10.892;2022-07-29T00:25:30;97583.13;;;21.71;44.11
73085;BME280;61266;49.460;10.892;2022-07-29T00:27:59;97580.97;;;21.58;44.82
73085;BME280;61266;49.460;10.892;2022-07-29T00:30:28;97579.91;;;21.44;45.28
73085;BME280;61266;49.460;10.892;2022-07-29T00:32:56;97575.81;;;21.41;45.02
73085;BME280;61266;49.460;10.892;2022-07-29T00:35:25;97580.44;;;21.56;44.38
73085;BME280;61266;49.460;10.892;2022-07-29T00:38:11;97576.38;;;21.28;44.93
73085;BME280;61266;49.460;10.892;2022-07-29T00:40:40;97571.16;;;21.27;45.14
73085;BME280;61266;49.460;10.892;2022-07-29T00:43:10;97579.66;;;21.45;44.93
73085;BME280;61266;49.460;10.892;2022-07-29T00:45:38;97579.88;;;21.54;44.08
73085;BME280;61266;49.460;10.892;2022-07-29T00:48:06;97581.78;;;21.59;43.77
73085;BME280;61266;49.460;10.892;2022-07-29T00:50:37;97594.09;;;21.51;44.23
73085;BME280;61266;49.460;10.892;2022-07-29T00:53:06;97590.00;;;21.59;43.72
73085;BME280;61266;49.460;10.892;2022-07-29T00:55:38;97598.22;;;21.38;44.25
73085;BME280;61266;49.460;10.892;2022-07-29T00:58:06;97599.59;;;21.41;44.28
73085;BME280;61266;49.460;10.892;2022-07-29T01:00:33;97599.84;;;21.65;43.45
73085;BME280;61266;49.460;10.892;2022-07-29T01:03:02;97598.19;;;21.64;43.84
73085;BME280;61266;49.460;10.892;2022-07-29T01:05:30;97600.41;;;21.41;44.43
73085;BME280;61266;49.460;10.892;2022-07-29T01:08:20;97598.75;;;21.66;43.16
73085;BME280;61266;49.460;10.892;2022-07-29T01:10:49;97587.81;;;21.55;43.80
73085;BME280;61266;49.460;10.892;2022-07-29T01:13:21;97596.84;;;21.31;44.35
73085;BME280;61266;49.460;10.892;2022-07-29T01:16:04;97600.66;;;21.60;43.39
73085;BME280;61266;49.460;10.892;2022-07-29T01:18:44;97597.69;;;21.36;46.00
73085;BME280;61266;49.460;10.892;2022-07-29T01:21:27;97594.63;;;21.58;43.45
73085;BME280;61266;49.460;10.892;2022-07-29T01:24:14;97587.53;;;21.52;44.25
73085;BME280;61266;49.460;10.892;2022-07-29T01:26:48;97587.81;;;21.50;44.20
73085;BME280;61266;49.460;10.892;2022-07-29T01:29:21;97584.25;;;21.50;44.19
73085;BME280;61266;49.460;10.892;2022-07-29T01:32:02;97587.28;;;21.48;44.12
73085;BME280;61266;49.460;10.892;2022-07-29T01:34:47;97592.50;;;21.25;44.76
73085;BME280;61266;49.460;10.892;2022-07-29T01:37:20;97597.94;;;21.40;44.21
73085;BME280;61266;49.460;10.892;2022-07-29T01:39:52;97592.19;;;21.46;44.04
73085;BME280;61266;49.460;10.892;2022-07-29T01:42:25;97590.31;;;21.22;45.40
73085;BME280;61266;49.460;10.892;2022-07-29T01:44:59;97586.75;;;21.41;44.53
73085;BME280;61266;49.460;10.892;2022-07-29T01:47:33;97573.63;;;21.38;44.47
73085;BME280;61266;49.460;10.892;2022-07-29T01:50:07;97567.06;;;21.44;44.39
73085;BME280;61266;49.460;10.892;2022-07-29T01:52:41;97558.06;;;21.29;44.80
73085;BME280;61266;49.460;10.892;2022-07-29T01:55:13;97562.19;;;21.21;45.19
73085;BME280;61266;49.460;10.892;2022-07-29T01:57:44;97570.09;;;21.13;45.46
73085;BME280;61266;49.460;10.892;2022-07-29T02:00:15;97565.69;;;21.06;45.47
73085;BME280;61266;49.460;10.892;2022-07-29T02:02:49;97559.97;;;21.28;44.78
73085;BME280;61266;49.460;10.892;2022-07-29T02:05:21;97566.53;;;21.22;44.85
73085;BME280;61266;49.460;10.892;2022-07-29T02:07:50;97575.25;;;21.09;45.34
73085;BME280;61266;49.460;10.892;2022-07-29T02:10:22;97568.13;;;20.83;47.56
73085;BME280;61266;49.460;10.892;2022-07-29T02:12:54;97569.25;;;21.07;45.32
73085;BME280;61266;49.460;10.892;2022-07-29T02:15:24;97571.75;;;21.14;45.66
73085;BME280;61266;49.460;10.892;2022-07-29T02:17:55;97573.06;;;21.11;45.26
73085;BME280;61266;49.460;10.892;2022-07-29T02:20:25;97567.91;;;21.09;45.41
73085;BME280;61266;49.460;10.892;2022-07-29T02:22:54;97558.59;;;21.05;45.56
73085;BME280;61266;49.460;10.892;2022-07-29T02:25:23;97555.06;;;21.05;45.59
73085;BME280;61266;49.460;10.892;2022-07-29T02:28:04;97559.41;;;20.96;45.74
73085;BME280;61266;49.460;10.892;2022-07-29T02:30:36;97559.41;;;20.96;46.32
73085;BME280;61266;49.460;10.892;2022-07-29T02:33:30;97563.50;;;20.88;45.95
73085;BME280;61266;49.460;10.892;2022-07-29T02:36:01;97561.59;;;20.84;46.12
73085;BME280;61266;49.460;10.892;2022-07-29T02:38:34;97569.84;;;20.11;49.00
73085;BME280;61266;49.460;10.892;2022-07-29T02:41:20;97555.16;;;20.23;49.37
73085;BME280;61266;49.460;10.892;2022-07-29T02:43:52;97559.88;;;20.32;47.71
73085;BME280;61266;49.460;10.892;2022-07-29T02:46:30;97560.72;;;20.38;47.47
73085;BME280;61266;49.460;10.892;2022-07-29T02:49:02;97565.13;;;20.64;46.79
73085;BME280;61266;49.460;10.892;2022-07-29T02:51:39;97563.47;;;20.53;47.36
73085;BME280;61266;49.460;10.892;2022-07-29T02:54:11;97562.66;;;20.57;47.16
73085;BME280;61266;49.460;10.892;2022-07-29T02:56:45;97562.94;;;20.66;46.61
73085;BME280;61266;49.460;10.892;2022-07-29T02:59:15;97561.84;;;20.62;46.51
73085;BME280;61266;49.460;10.892;2022-07-29T03:01:46;97567.84;;;20.64;46.68
73085;BME280;61266;49.460;10.892;2022-07-29T03:04:15;97570.31;;;20.60;46.80
73085;BME280;61266;49.460;10.892;2022-07-29T03:06:46;97573.84;;;20.56;47.16
73085;BME280;61266;49.460;10.892;2022-07-29T03:09:14;97566.47;;;20.56;46.81
73085;BME280;61266;49.460;10.892;2022-07-29T03:11:42;97573.28;;;20.59;47.06
73085;BME280;61266;49.460;10.892;2022-07-29T03:14:17;97567.28;;;20.57;46.79
73085;BME280;61266;49.460;10.892;2022-07-29T03:16:48;97568.34;;;20.51;47.03
73085;BME280;61266;49.460;10.892;2022-07-29T03:19:17;97566.72;;;20.45;47.67
73085;BME280;61266;49.460;10.892;2022-07-29T03:21:45;97569.16;;;20.46;47.17
73085;BME280;61266;49.460;10.892;2022-07-29T03:24:30;97574.34;;;20.43;47.37
73085;BME280;61266;49.460;10.892;2022-07-29T03:26:59;97562.59;;;20.42;47.54
73085;BME280;61266;49.460;10.892;2022-07-29T03:29:27;97563.16;;;20.39;47.07
73085;BME280;61266;49.460;10.892;2022-07-29T03:32:02;97561.25;;;20.40;47.39
73085;BME280;61266;49.460;10.892;2022-07-29T03:34:35;97557.69;;;20.34;47.38
73085;BME280;61266;49.460;10.892;2022-07-29T03:37:02;97562.03;;;20.35;47.37
73085;BME280;61266;49.460;10.892;2022-07-29T03:39:33;97561.72;;;20.27;47.86
73085;BME280;61266;49.460;10.892;2022-07-29T03:42:03;97561.44;;;20.23;47.83
73085;BME280;61266;49.460;10.892;2022-07-29T03:44:32;97554.03;;;20.18;48.13
73085;BME280;61266;49.460;10.892;2022-07-29T03:47:04;97556.22;;;20.11;48.67
73085;BME280;61266;49.460;10.892;2022-07-29T03:49:36;97565.78;;;20.19;47.98
73085;BME280;61266;49.460;10.892;2022-07-29T03:52:05;97567.69;;;20.18;47.98
73085;BME280;61266;49.460;10.892;2022-07-29T03:54:33;97575.31;;;20.16;48.01
73085;BME280;61266;49.460;10.892;2022-07-29T03:57:02;97573.97;;;20.19;47.95
73085;BME280;61266;49.460;10.892;2022-07-29T03:59:39;97581.84;;;20.15;48.12
73085;BME280;61266;49.460;10.892;2022-07-29T04:02:11;97579.69;;;20.17;48.15
73085;BME280;61266;49.460;10.892;2022-07-29T04:04:41;97586.50;;;20.10;48.21
73085;BME280;61266;49.460;10.892;2022-07-29T04:07:11;97587.28;;;20.05;48.36
73085;BME280;61266;49.460;10.892;2022-07-29T04:09:39;97583.75;;;20.10;48.20
73085;BME280;61266;49.460;10.892;2022-07-29T04:12:07;97590.00;;;20.05;48.05
73085;BME280;61266;49.460;10.892;2022-07-29T04:14:35;97591.88;;;20.00;48.67
73085;BME280;61266;49.460;10.892;2022-07-29T04:17:04;97591.88;;;20.00;48.47
73085;BME280;61266;49.460;10.892;2022-07-29T04:19:34;97593.28;;;20.02;48.28
73085;BME280;61266;49.460;10.892;2022-07-29T04:22:01;97594.06;;;19.98;48.24
73085;BME280;61266;49.460;10.892;2022-07-29T04:24:29;97593.81;;;20.04;48.67
73085;BME280;61266;49.460;10.892;2022-07-29T04:26:57;97595.44;;;20.00;48.58
73085;BME280;61266;49.460;10.892;2022-07-29T04:29:24;97595.97;;;19.97;49.14
73085;BME280;61266;49.460;10.892;2022-07-29T04:31:52;97602.50;;;19.96;48.75
73085;BME280;61266;49.460;10.892;2022-07-29T04:34:20;97597.03;;;19.91;49.51
73085;BME280;61266;49.460;10.892;2022-07-29T04:36:49;97589.44;;;19.98;48.98
73085;BME280;61266;49.460;10.892;2022-07-29T04:39:16;97593.78;;;19.99;48.86
73085;BME280;61266;49.460;10.892;2022-07-29T04:41:50;97604.16;;;19.97;49.14
73085;BME280;61266;49.460;10.892;2022-07-29T04:44:21;97601.44;;;19.97;48.91
73085;BME280;61266;49.460;10.892;2022-07-29T04:46:55;97612.03;;;19.99;49.15
73085;BME280;61266;49.460;10.892;2022-07-29T04:49:22;97608.25;;;20.00;49.03
73085;BME280;61266;49.460;10.892;2022-07-29T04:51:52;97603.34;;;20.02;48.97
73085;BME280;61266;49.460;10.892;2022-07-29T04:54:19;97605.81;;;19.98;49.37
73085;BME280;61266;49.460;10.892;2022-07-29T04:56:47;97608.22;;;19.95;49.52
73085;BME280;61266;49.460;10.892;2022-07-29T04:59:15;97606.34;;;20.00;49.21
73085;BME280;61266;49.460;10.892;2022-07-29T05:01:42;97606.09;;;20.07;49.33
73085;BME280;61266;49.460;10.892;2022-07-29T05:04:10;97606.91;;;20.07;49.44
73085;BME280;61266;49.460;10.892;2022-07-29T05:06:38;97609.91;;;20.11;49.34
73085;BME280;61266;49.460;10.892;2022-07-29T05:09:10;97609.56;;;20.54;48.23
73085;BME280;61266;49.460;10.892;2022-07-29T05:11:37;97609.72;;;20.28;48.77
73085;BME280;61266;49.460;10.892;2022-07-29T05:14:05;97615.63;;;20.04;49.68
73085;BME280;61266;49.460;10.892;2022-07-29T05:16:33;97617.81;;;20.02;49.24
73085;BME280;61266;49.460;10.892;2022-07-29T05:19:00;97622.50;;;20.17;49.66
73085;BME280;61266;49.460;10.892;2022-07-29T05:21:28;97617.72;;;20.39;48.83
73085;BME280;61266;49.460;10.892;2022-07-29T05:23:58;97617.59;;;20.14;49.59
73085;BME280;61266;49.460;10.892;2022-07-29T05:26:28;97616.88;;;20.29;51.63
73085;BME280;61266;49.460;10.892;2022-07-29T05:28:58;97615.63;;;20.72;49.21
73085;BME280;61266;49.460;10.892;2022-07-29T05:31:28;97612.63;;;20.83;48.43
73085;BME280;61266;49.460;10.892;2022-07-29T05:33:59;97602.03;;;21.22;48.89
73085;BME280;61266;49.460;10.892;2022-07-29T05:36:27;97600.13;;;21.33;47.78
73085;BME280;61266;49.460;10.892;2022-07-29T05:38:58;97602.56;;;21.54;46.67
73085;BME280;61266;49.460;10.892;2022-07-29T05:41:25;97604.25;;;21.45;46.86
73085;BME280;61266;49.460;10.892;2022-07-29T05:43:54;97610.22;;;21.73;48.96
73085;BME280;61266;49.460;10.892;2022-07-29T05:46:22;97606.84;;;22.06;45.72
73085;BME280;61266;49.460;10.892;2022-07-29T05:48:50;97601.09;;;22.08;47.15
73085;BME280;61266;49.460;10.892;2022-07-29T05:51:19;97608.25;;;21.98;46.65
73085;BME280;61266;49.460;10.892;2022-07-29T05:53:49;97597.88;;;21.95;46.91
73085;BME280;61266;49.460;10.892;2022-07-29T05:56:18;97603.38;;;21.55;47.45
73085;BME280;61266;49.460;10.892;2022-07-29T05:58:46;97605.03;;;21.61;48.06
73085;BME280;61266;49.460;10.892;2022-07-29T06:01:15;97605.59;;;21.53;47.38
73085;BME280;61266;49.460;10.892;2022-07-29T06:03:44;97601.19;;;21.62;46.90
73085;BME280;61266;49.460;10.892;2022-07-29T06:06:12;97607.16;;;21.84;46.84
73085;BME280;61266;49.460;10.892;2022-07-29T06:08:41;97602.25;;;21.76;46.75
73085;BME280;61266;49.460;10.892;2022-07-29T06:11:18;97600.34;;;21.97;47.20
73085;BME280;61266;49.460;10.892;2022-07-29T06:13:46;97605.78;;;21.82;46.53
73085;BME280;61266;49.460;10.892;2022-07-29T06:16:16;97603.41;;;21.35;47.34
73085;BME280;61266;49.460;10.892;2022-07-29T06:18:55;97606.13;;;21.15;48.18
73085;BME280;61266;49.460;10.892;2022-07-29T06:21:24;97608.91;;;21.30;48.27
73085;BME280;61266;49.460;10.892;2022-07-29T06:23:54;97603.97;;;21.12;48.29
73085;BME280;61266;49.460;10.892;2022-07-29T06:26:23;97613.81;;;21.13;49.47
73085;BME280;61266;49.460;10.892;2022-07-29T06:28:57;97614.59;;;21.18;49.42
73085;BME280;61266;49.460;10.892;2022-07-29T06:31:31;97611.88;;;21.18;49.55
73085;BME280;61266;49.460;10.892;2022-07-29T06:34:06;97610.25;;;21.17;48.24
73085;BME280;61266;49.460;10.892;2022-07-29T06:37:23;97623.34;;;21.55;48.98
73085;BME280;61266;49.460;10.892;2022-07-29T06:39:59;97620.34;;;21.57;48.98
73085;BME280;61266;49.460;10.892;2022-07-29T06:42:49;97619.00;;;21.24;48.63
73085;BME280;61266;49.460;10.892;2022-07-29T06:45:27;97626.09;;;21.15;48.63
73085;BME280;61266;49.460;10.892;2022-07-29T06:48:02;97624.66;;;21.02;49.83
73085;BME280;61266;49.460;10.892;2022-07-29T06:50:30;97625.25;;;21.15;48.58
73085;BME280;61266;49.460;10.892;2022-07-29T06:52:58;97624.16;;;21.31;49.17
73085;BME280;61266;49.460;10.892;2022-07-29T06:55:25;97625.53;;;21.28;49.68
73085;BME280;61266;49.460;10.892;2022-07-29T06:57:55;97626.88;;;21.00;49.48
73085;BME280;61266;49.460;10.892;2022-07-29T07:00:23;97621.19;;;21.32;49.50
73085;BME280;61266;49.460;10.892;2022-07-29T07:02:51;97620.03;;;21.74;50.22
73085;BME280;61266;49.460;10.892;2022-07-29T07:05:20;97614.53;;;22.09;47.83
73085;BME280;61266;49.460;10.892;2022-07-29T07:07:51;97613.81;;;22.37;48.88
73085;BME280;61266;49.460;10.892;2022-07-29T07:10:19;97618.16;;;21.69;48.39
73085;BME280;61266;49.460;10.892;2022-07-29T07:12:49;97612.28;;;22.16;48.96
73085;BME280;61266;49.460;10.892;2022-07-29T07:15:17;97612.53;;;22.25;47.80
73085;BME280;61266;49.460;10.892;2022-07-29T07:18:04;97615.28;;;22.25;48.08
73085;BME280;61266;49.460;10.892;2022-07-29T07:20:39;97613.03;;;22.37;47.45
73085;BME280;61266;49.460;10.892;2022-07-29T07:23:07;97610.13;;;22.72;47.84
73085;BME280;61266;49.460;10.892;2022-07-29T07:25:35;97608.88;;;22.99;47.64
73085;BME280;61266;49.460;10.892;2022-07-29T07:28:04;97611.81;;;23.41;46.49
73085;BME280;61266;49.460;10.892;2022-07-29T07:30:34;97612.34;;;23.09;46.48
73085;BME280;61266;49.460;10.892;2022-07-29T07:33:03;97607.34;;;22.23;49.21
73085;BME280;61266;49.460;10.892;2022-07-29T07:35:31;97603.03;;;22.02;49.69
73085;BME280;61266;49.460;10.892;2022-07-29T07:38:01;97607.09;;;22.10;48.88
73085;BME280;61266;49.460;10.892;2022-07-29T07:40:30;97606.38;;;22.53;48.58
73085;BME280;61266;49.460;10.892;2022-07-29T07:43:03;97598.28;;;22.82;48.23
73085;BME280;61266;49.460;10.892;2022-07-29T07:45:32;97606.09;;;23.04;47.43
73085;BME280;61266;49.460;10.892;2022-07-29T07:48:00;97601.97;;;23.01;46.86
73085;BME280;61266;49.460;10.892;2022-07-29T07:50:27;97601.22;;;23.29;47.55
73085;BME280;61266;49.460;10.892;2022-07-29T07:52:56;97598.53;;;22.85;48.43
73085;BME280;61266;49.460;10.892;2022-07-29T07:55:26;97603.38;;;22.99;49.09
73085;BME280;61266;49.460;10.892;2022-07-29T07:58:15;97599.19;;;23.11;47.44
73085;BME280;61266;49.460;10.892;2022-07-29T08:00:45;97597.91;;;22.99;47.82
73085;BME280;61266;49.460;10.892;2022-07-29T08:03:14;97599.22;;;23.06;48.65
73085;BME280;61266;49.460;10.892;2022-07-29T08:05:43;97599.78;;;23.03;48.37
73085;BME280;61266;49.460;10.892;2022-07-29T08:08:11;97606.91;;;23.04;47.40
73085;BME280;61266;49.460;10.892;2022-07-29T08:10:44;97603.41;;;23.90;47.27
73085;BME280;61266;49.460;10.892;2022-07-29T08:13:36;97606.75;;;24.11;45.43
73085;BME280;61266;49.460;10.892;2022-07-29T08:16:05;97600.06;;;23.69;46.24
73085;BME280;61266;49.460;10.892;2022-07-29T08:18:44;97601.44;;;23.04;48.24
73085;BME280;61266;49.460;10.892;2022-07-29T08:21:17;97599.06;;;23.60;47.51
73085;BME280;61266;49.460;10.892;2022-07-29T08:23:49;97603.75;;;23.83;46.53
73085;BME280;61266;49.460;10.892;2022-07-29T08:26:29;97600.72;;;23.85;45.17
73085;BME280;61266;49.460;10.892;2022-07-29T08:28:57;97595.78;;;24.96;43.75
73085;BME280;61266;49.460;10.892;2022-07-29T08:31:33;97598.13;;;24.22;45.42
73085;BME280;61266;49.460;10.892;2022-07-29T08:34:01;97590.28;;;25.14;41.90
73085;BME280;61266;49.460;10.892;2022-07-29T08:36:30;97582.63;;;24.93;42.23
73085;BME280;61266;49.460;10.892;2022-07-29T08:38:59;97583.22;;;24.90;41.76
73085;BME280;61266;49.460;10.892;2022-07-29T08:41:28;97588.94;;;25.12;41.76
73085;BME280;61266;49.460;10.892;2022-07-29T08:43:56;97582.03;;;25.14;42.66
73085;BME280;61266;49.460;10.892;2022-07-29T08:46:24;97588.00;;;24.60;43.28
73085;BME280;61266;49.460;10.892;2022-07-29T08:48:52;97585.00;;;25.18;40.69
73085;BME280;61266;49.460;10.892;2022-07-29T08:51:21;97585.91;;;24.76;41.25
73085;BME280;61266;49.460;10.892;2022-07-29T08:53:50;97583.22;;;24.52;41.06
73085;BME280;61266;49.460;10.892;2022-07-29T08:56:18;97582.03;;;25.14;39.63
73085;BME280;61266;49.460;10.892;2022-07-29T08:58:48;97579.47;;;24.80;39.36
73085;BME280;61266;49.460;10.892;2022-07-29T09:01:22;97579.16;;;24.45;41.55
73085;BME280;61266;49.460;10.892;2022-07-29T09:04:03;97581.06;;;24.02;43.67
73085;BME280;61266;49.460;10.892;2022-07-29T09:06:34;97577.34;;;24.77;42.28
73085;BME280;61266;49.460;10.892;2022-07-29T09:09:07;97576.69;;;24.86;43.45
73085;BME280;61266;49.460;10.892;2022-07-29T09:11:35;97578.38;;;25.84;41.32
73085;BME280;61266;49.460;10.892;2022-07-29T09:14:12;97576.63;;;25.42;41.80
73085;BME280;61266;49.460;10.892;2022-07-29T09:17:10;97578.97;;;25.94;38.36
73085;BME280;61266;49.460;10.892;2022-07-29T09:19:38;97581.63;;;25.40;39.77
73085;BME280;61266;49.460;10.892;2022-07-29T09:22:28;97568.50;;;24.80;41.74
73085;BME280;61266;49.460;10.892;2022-07-29T09:25:06;97577.44;;;25.10;41.41
73085;BME280;61266;49.460;10.892;2022-07-29T09:27:37;97570.97;;;24.82;42.41
73085;BME280;61266;49.460;10.892;2022-07-29T09:30:07;97568.44;;;24.67;42.35
73085;BME280;61266;49.460;10.892;2022-07-29T09:32:55;97574.31;;;24.98;41.69
73085;BME280;61266;49.460;10.892;2022-07-29T09:35:25;97567.94;;;25.67;40.24
73085;BME280;61266;49.460;10.892;2022-07-29T09:37:54;97576.13;;;25.40;40.66
73085;BME280;61266;49.460;10.892;2022-07-29T09:40:24;97571.66;;;25.25;40.70
73085;BME280;61266;49.460;10.892;2022-07-29T09:42:57;97568.50;;;26.37;37.40
73085;BME280;61266;49.460;10.892;2022-07-29T09:45:33;97561.13;;;25.78;38.34
73085;BME280;61266;49.460;10.892;2022-07-29T09:48:13;97564.28;;;25.39;40.08
73085;BME280;61266;49.460;10.892;2022-07-29T09:50:42;97571.81;;;25.34;40.69
73085;BME280;61266;49.460;10.892;2022-07-29T09:53:11;97562.03;;;25.28;40.51
73085;BME280;61266;49.460;10.892;2022-07-29T09:55:46;97573.50;;;24.97;41.08
73085;BME280;61266;49.460;10.892;2022-07-29T09:58:17;97560.91;;;25.61;40.03
73085;BME280;61266;49.460;10.892;2022-07-29T10:00:50;97567.81;;;25.58;39.45
73085;BME280;61266;49.460;10.892;2022-07-29T10:03:19;97568.66;;;25.40;38.93
73085;BME280;61266;49.460;10.892;2022-07-29T10:06:08;97570.28;;;25.41;38.38
73085;BME280;61266;49.460;10.892;2022-07-29T10:08:38;97564.47;;;25.61;39.33
73085;BME280;61266;49.460;10.892;2022-07-29T10:11:09;97559.69;;;26.08;37.79
73085;BME280;61266;49.460;10.892;2022-07-29T10:13:38;97559.13;;;26.25;36.69
73085;BME280;61266;49.460;10.892;2022-07-29T10:16:08;97566.44;;;26.02;38.96
73085;BME280;61266;49.460;10.892;2022-07-29T10:18:37;97559.25;;;27.05;37.34
73085;BME280;61266;49.460;10.892;2022-07-29T10:21:06;97559.50;;;26.59;37.93
73085;BME280;61266;49.460;10.892;2022-07-29T10:23:34;97555.03;;;26.72;37.08
73085;BME280;61266;49.460;10.892;2022-07-29T10:26:12;97555.25;;;26.39;37.69
73085;BME280;61266;49.460;10.892;2022-07-29T10:28:40;97547.59;;;26.72;36.77
73085;BME280;61266;49.460;10.892;2022-07-29T10:31:15;97543.72;;;26.87;36.68
73085;BME280;61266;49.460;10.892;2022-07-29T10:33:53;97545.25;;;26.79;37.13
73085;BME280;61266;49.460;10.892;2022-07-29T10:36:35;97550.25;;;26.63;37.17
73085;BME280;61266;49.460;10.892;2022-07-29T10:39:19;97550.63;;;26.48;38.41
73085;BME280;61266;49.460;10.892;2022-07-29T10:42:17;97537.06;;;26.38;37.51
73085;BME280;61266;49.460;10.892;2022-07-29T10:45:00;97538.31;;;27.04;36.53
73085;BME280;61266;49.460;10.892;2022-07-29T10:47:31;97533.63;;;27.04;36.16
73085;BME280;61266;49.460;10.892;2022-07-29T10:50:03;97541.56;;;26.34;38.63
73085;BME280;61266;49.460;10.892;2022-07-29T10:53:01;97541.97;;;26.41;38.50
73085;BME280;61266;49.460;10.892;2022-07-29T10:55:35;97537.00;;;27.24;35.44
73085;BME280;61266;49.460;10.892;2022-07-29T10:58:15;97521.72;;;26.95;37.22
73085;BME280;61266;49.460;10.892;2022-07-29T11:00:51;97522.78;;;27.08;36.49
73085;BME280;61266;49.460;10.892;2022-07-29T11:03:46;97521.31;;;26.52;38.15
73085;BME280;61266;49.460;10.892;2022-07-29T11:06:24;97516.66;;;26.89;36.25
73085;BME280;61266;49.460;10.892;2022-07-29T11:09:16;97515.59;;;26.98;36.81
73085;BME280;61266;49.460;10.892;2022-07-29T11:11:45;97513.88;;;26.89;37.39
73085;BME280;61266;49.460;10.892;2022-07-29T11:14:20;97513.19;;;27.05;36.62
73085;BME280;61266;49.460;10.892;2022-07-29T11:17:06;97515.72;;;26.93;36.27
73085;BME280;61266;49.460;10.892;2022-07-29T11:19:36;97517.50;;;27.20;36.45
73085;BME280;61266;49.460;10.892;2022-07-29T11:22:34;97512.84;;;26.98;36.89
73085;BME280;61266;49.460;10.892;2022-07-29T11:25:23;97516.31;;;27.13;37.28
73085;BME280;61266;49.460;10.892;2022-07-29T11:28:16;97520.22;;;27.12;38.17
73085;BME280;61266;49.460;10.892;2022-07-29T11:30:50;97516.81;;;26.92;36.51
73085;BME280;61266;49.460;10.892;2022-07-29T11:33:29;97515.25;;;26.14;38.74
73085;BME280;61266;49.460;10.892;2022-07-29T11:36:19;97518.03;;;26.64;37.04
73085;BME280;61266;49.460;10.892;2022-07-29T11:39:25;97510.94;;;26.49;36.86
73085;BME280;61266;49.460;10.892;2022-07-29T11:45:17;97507.81;;;26.64;36.36
73085;BME280;61266;49.460;10.892;2022-07-29T11:48:17;97498.53;;;26.38;36.92
73085;BME280;61266;49.460;10.892;2022-07-29T11:51:09;97493.44;;;26.18;39.14
73085;BME280;61266;49.460;10.892;2022-07-29T11:53:58;97493.09;;;27.05;35.59
73085;BME280;61266;49.460;10.892;2022-07-29T11:56:39;97485.28;;;26.98;35.75
73085;BME280;61266;49.460;10.892;2022-07-29T11:59:10;97489.19;;;27.59;34.45
73085;BME280;61266;49.460;10.892;2022-07-29T12:01:56;97485.38;;;26.71;35.87
73085;BME280;61266;49.460;10.892;2022-07-29T12:04:50;97481.44;;;26.86;34.98
73085;BME280;61266;49.460;10.892;2022-07-29T12:07:26;97478.00;;;27.02;34.20
73085;BME280;61266;49.460;10.892;2022-07-29T12:10:02;97471.69;;;26.66;36.11
73085;BME280;61266;49.460;10.892;2022-07-29T12:12:32;97470.22;;;26.82;35.13
73085;BME280;61266;49.460;10.892;2022-07-29T12:15:14;97466.47;;;27.00;35.63
73085;BME280;61266;49.460;10.892;2022-07-29T12:17:49;97466.91;;;26.94;35.30
73085;BME280;61266;49.460;10.892;2022-07-29T12:20:23;97473.63;;;26.66;35.88
73085;BME280;61266;49.460;10.892;2022-07-29T12:22:53;97456.03;;;26.53;36.97
73085;BME280;61266;49.460;10.892;2022-07-29T12:25:22;97463.34;;;26.57;36.63
73085;BME280;61266;49.460;10.892;2022-07-29T12:28:02;97456.44;;;26.82;34.46
73085;BME280;61266;49.460;10.892;2022-07-29T12:30:42;97458.13;;;26.34;37.73
73085;BME280;61266;49.460;10.892;2022-07-29T12:33:18;97462.84;;;26.55;37.03
73085;BME280;61266;49.460;10.892;2022-07-29T12:35:51;97467.38;;;26.74;37.30
73085;BME280;61266;49.460;10.892;2022-07-29T12:38:33;97468.63;;;26.68;36.37
73085;BME280;61266;49.460;10.892;2022-07-29T12:41:04;97464.09;;;26.72;35.02
73085;BME280;61266;49.460;10.892;2022-07-29T12:43:32;97460.66;;;26.44;36.16
73085;BME280;61266;49.460;10.892;2022-07-29T12:46:12;97457.09;;;26.66;35.72
73085;BME280;61266;49.460;10.892;2022-07-29T12:48:42;97458.47;;;26.77;34.76
73085;BME280;61266;49.460;10.892;2022-07-29T12:51:28;97458.00;;;26.75;34.83
73085;BME280;61266;49.460;10.892;2022-07-29T12:54:11;97451.72;;;26.60;36.64
73085;BME280;61266;49.460;10.892;2022-07-29T12:56:57;97440.97;;;26.95;33.33
73085;BME280;61266;49.460;10.892;2022-07-29T12:59:25;97443.63;;;27.08;36.51
73085;BME280;61266;49.460;10.892;2022-07-29T13:01:52;97434.78;;;27.20;36.37
73085;BME280;61266;49.460;10.892;2022-07-29T13:04:26;97438.63;;;27.41;35.70
73085;BME280;61266;49.460;10.892;2022-07-29T13:07:04;97434.53;;;27.70;34.45
73085;BME280;61266;49.460;10.892;2022-07-29T13:10:12;97432.91;;;27.69;34.15
73085;BME280;61266;49.460;10.892;2022-07-29T13:13:02;97430.84;;;27.91;32.62
73085;BME280;61266;49.460;10.892;2022-07-29T13:15:32;97429.69;;;27.84;33.00
73085;BME280;61266;49.460;10.892;2022-07-29T13:18:05;97434.13;;;28.02;32.64
73085;BME280;61266;49.460;10.892;2022-07-29T13:20:46;97441.22;;;27.38;34.40
73085;BME280;61266;49.460;10.892;2022-07-29T13:23:16;97442.34;;;27.37;33.84
73085;BME280;61266;49.460;10.892;2022-07-29T13:26:08;97438.13;;;27.08;35.18